Concord, NH

6:37 AM EDT on August 20, 2014 (GMT -0400)
East Concord | Change Station
CLOSE
Current Station
Personal Weather Station
Location: Concord, NH
Elevation: 341 ft
Nearby Weather Stations

Elev 341 ft 43.24 °N, 71.53 °W | Updated 3 seconds ago

Mostly Cloudy
Mostly Cloudy
50.8 °F
Feels Like 50.8 °F
N
0.0
Wind Variable Wind from East
Gusts 0.0 mph

Today
High -- | Low -- °F
--% Chance of Precip.
Yesterday
High -- | Low -- °F
Precip. -- in
5:56 AM 7:41 PM
Waning Crescent, 22% visible
Pressure 30.01 in
Visibility 10.0 miles
Clouds Mostly Cloudy 300 ft
Dew Point 50 °F
Humidity 97%
Rainfall 0.00 in
Snow Depth Not available.
UV 0 out of 12
Pollen 7.80 out of 12
Ozone Good
Flu Activity Not available.
SPECI KCON 201012Z AUTO 00000KT 10SM BKN003 09/09 A3001 RMK AO2 T00940089

More Conditions Fewer Conditions

Pressure 30.01 in
Visibility 10.0 miles
Clouds Mostly Cloudy 300 ft
Dew Point 50 °F
Humidity 97%
Rainfall 0.00 in
Snow Depth Not available.
UV 0 out of 12
Pollen 7.80 out of 12
Ozone Good
Flu Activity Not available.
SPECI KCON 201012Z AUTO 00000KT 10SM BKN003 09/09 A3001 RMK AO2 T00940089

More Conditions Fewer Conditions

10-Day Weather Forecast

Almanac

Astronomy

Aug. 20, 2014 Rise Set
Actual Time 5:56 AM EDT 7:41 PM EDT
Civil Twilight 5:26 AM EDT 8:11 PM EDT
Nautical Twilight 4:49 AM EDT 8:48 PM EDT
Astronomical Twilight 4:09 AM EDT 9:27 PM EDT
Moon 1:31 AM EDT 4:26 PM EDT
Length of Visible Light 14h 44m
Length of Day
13h 44m
Tomorrow will be 2m 42s shorter.
Waning Crescent, 22% of the Moon is Illuminated
Today
Waning Crescent
Aug 25
New
Sep 2
First Quarter
Sep 8
Full
Sep 15
Last Quarter

Today's Extremes

State Highs State Lows

Community

WunderPhotos

Upload Photos

1,745,604 photos uploaded!

Nearby

Air Quality

  Air Quality AQ Index Pollutant
Yesterday Good
OZONE
Current Good
OZONE
Wednesday Good
PM2.5
Wednesday Good
OZONE

Snow Depth

Station Depth Elevation
No new snow has been reported.

Earthquake Activity

City Distance Mag. Time & Date
Deep River Center, Connecticut 139 miles 2.7 3:09 AM EDT
2014-08-14
Minimum magnitude displayed is 2.5.

Coastal Water Temperatures

Place Temperature
No Stations Reporting

Nearby Weather Stations